Uirapuru, Brazil
Current Conditions -  °F | °C
As of 8:00 PM on Saturday 25 Oct 2014 (Local Time) from SBAN Reporting Station
Broken Clouds Broken Clouds  
Wind Chill: 68°   Ceiling: 8000
Heat Index: 68°   Visibility: 6mi
Dew Point: 61°   Wind: 2mph
Humidity: 78%   Direction: 40°NE
Pressure: 30.03"   Gusts: NA
Location:  14.29°S, 49.92°W
Report Text: SBAN 252200Z 04002KT 9999 FEW035 BKN080 20/16 Q1017
Loading
Personal Weather Stations






























Interactive Weather Map
Tropical Storm Tracking
New forecast layout! Learn more

10-Day Weather Forecast

Advertisements
Track Severe Weather on mobile